sensor_id;sensor_type;location;lat;lon;timestamp;pressure;altitude;pressure_sealevel;temperature;humidity
43503;BME280;29098;48.184;16.298;2023-02-05T00:01:32;101150.72;;;-0.04;72.08
43503;BME280;29098;48.184;16.298;2023-02-05T00:03:57;101142.59;;;0.04;71.88
43503;BME280;29098;48.184;16.298;2023-02-05T00:06:23;101140.13;;;0.01;71.22
43503;BME280;29098;48.184;16.298;2023-02-05T00:08:48;101144.69;;;-0.05;70.83
43503;BME280;29098;48.184;16.298;2023-02-05T00:11:13;101156.16;;;-0.10;70.85
43503;BME280;29098;48.184;16.298;2023-02-05T00:13:39;101150.38;;;0.04;70.01
43503;BME280;29098;48.184;16.298;2023-02-05T00:16:12;101152.59;;;-0.08;70.56
43503;BME280;29098;48.184;16.298;2023-02-05T00:18:38;101148.84;;;-0.01;69.38
43503;BME280;29098;48.184;16.298;2023-02-05T00:21:04;101152.34;;;-0.02;68.17
43503;BME280;29098;48.184;16.298;2023-02-05T00:23:30;101158.34;;;-0.01;67.84
43503;BME280;29098;48.184;16.298;2023-02-05T00:25:55;101158.13;;;0.04;67.62
43503;BME280;29098;48.184;16.298;2023-02-05T00:28:20;101166.28;;;-0.04;66.99
43503;BME280;29098;48.184;16.298;2023-02-05T00:30:46;101161.34;;;-0.10;66.72
43503;BME280;29098;48.184;16.298;2023-02-05T00:33:11;101161.38;;;0.09;65.29
43503;BME280;29098;48.184;16.298;2023-02-05T00:35:36;101161.38;;;0.09;64.88
43503;BME280;29098;48.184;16.298;2023-02-05T00:38:02;101158.44;;;-0.03;64.52
43503;BME280;29098;48.184;16.298;2023-02-05T00:40:27;101164.09;;;-0.13;63.87
43503;BME280;29098;48.184;16.298;2023-02-05T00:42:53;101166.22;;;-0.03;63.02
43503;BME280;29098;48.184;16.298;2023-02-05T00:45:18;101170.28;;;0.03;63.03
43503;BME280;29098;48.184;16.298;2023-02-05T00:47:43;101186.34;;;0.11;62.01
43503;BME280;29098;48.184;16.298;2023-02-05T00:50:09;101185.38;;;0.14;61.23
43503;BME280;29098;48.184;16.298;2023-02-05T00:52:34;101183.59;;;0.15;60.72
43503;BME280;29098;48.184;16.298;2023-02-05T00:55:00;101198.44;;;0.11;60.87
43503;BME280;29098;48.184;16.298;2023-02-05T00:57:25;101198.88;;;0.02;60.70
43503;BME280;29098;48.184;16.298;2023-02-05T00:59:51;101189.41;;;0.01;61.04
43503;BME280;29098;48.184;16.298;2023-02-05T01:02:17;101186.81;;;0.01;60.39
43503;BME280;29098;48.184;16.298;2023-02-05T01:04:47;101188.03;;;0.12;60.38
43503;BME280;29098;48.184;16.298;2023-02-05T01:07:12;101189.19;;;0.05;60.72
43503;BME280;29098;48.184;16.298;2023-02-05T01:09:38;101198.16;;;-0.02;61.40
43503;BME280;29098;48.184;16.298;2023-02-05T01:12:03;101192.41;;;-0.09;60.64
43503;BME280;29098;48.184;16.298;2023-02-05T01:14:28;101192.06;;;-0.01;60.53
43503;BME280;29098;48.184;16.298;2023-02-05T01:16:54;101202.88;;;-0.12;61.05
43503;BME280;29098;48.184;16.298;2023-02-05T01:19:19;101200.13;;;-0.07;61.15
43503;BME280;29098;48.184;16.298;2023-02-05T01:21:44;101200.50;;;-0.17;61.69
43503;BME280;29098;48.184;16.298;2023-02-05T01:24:10;101203.75;;;-0.11;61.70
43503;BME280;29098;48.184;16.298;2023-02-05T01:26:35;101208.03;;;-0.10;61.83
43503;BME280;29098;48.184;16.298;2023-02-05T01:29:01;101218.91;;;-0.02;60.58
43503;BME280;29098;48.184;16.298;2023-02-05T01:31:26;101214.81;;;-0.08;60.52
43503;BME280;29098;48.184;16.298;2023-02-05T01:33:53;101201.53;;;0.00;59.86
43503;BME280;29098;48.184;16.298;2023-02-05T01:36:19;101205.78;;;-0.18;60.95
43503;BME280;29098;48.184;16.298;2023-02-05T01:38:44;101212.03;;;-0.24;60.31
43503;BME280;29098;48.184;16.298;2023-02-05T01:41:11;101212.44;;;-0.12;60.19
43503;BME280;29098;48.184;16.298;2023-02-05T01:43:37;101210.09;;;-0.19;60.34
43503;BME280;29098;48.184;16.298;2023-02-05T01:46:23;101218.72;;;-0.18;59.88
43503;BME280;29098;48.184;16.298;2023-02-05T01:48:50;101219.34;;;-0.13;60.08
43503;BME280;29098;48.184;16.298;2023-02-05T01:51:17;101221.31;;;-0.18;60.83
43503;BME280;29098;48.184;16.298;2023-02-05T01:53:43;101223.06;;;-0.19;60.62
43503;BME280;29098;48.184;16.298;2023-02-05T01:56:18;101217.31;;;-0.25;59.98
43503;BME280;29098;48.184;16.298;2023-02-05T01:58:45;101214.91;;;-0.30;60.42
43503;BME280;29098;48.184;16.298;2023-02-05T02:01:12;101210.50;;;-0.28;60.35
43503;BME280;29098;48.184;16.298;2023-02-05T02:03:37;101214.13;;;-0.32;60.39
43503;BME280;29098;48.184;16.298;2023-02-05T02:06:04;101214.56;;;-0.22;60.15
43503;BME280;29098;48.184;16.298;2023-02-05T02:08:30;101223.00;;;-0.38;60.67
43503;BME280;29098;48.184;16.298;2023-02-05T02:10:57;101213.16;;;-0.30;60.00
43503;BME280;29098;48.184;16.298;2023-02-05T02:13:23;101220.91;;;-0.30;60.47
43503;BME280;29098;48.184;16.298;2023-02-05T02:15:50;101219.56;;;-0.38;61.03
43503;BME280;29098;48.184;16.298;2023-02-05T02:18:16;101215.28;;;-0.39;60.54
43503;BME280;29098;48.184;16.298;2023-02-05T02:20:57;101224.09;;;-0.44;60.11
43503;BME280;29098;48.184;16.298;2023-02-05T02:23:39;101220.31;;;-0.57;61.12
43503;BME280;29098;48.184;16.298;2023-02-05T02:26:14;101236.34;;;-0.70;61.46
43503;BME280;29098;48.184;16.298;2023-02-05T02:28:53;101233.03;;;-0.73;61.82
43503;BME280;29098;48.184;16.298;2023-02-05T02:31:26;101243.66;;;-0.79;60.95
43503;BME280;29098;48.184;16.298;2023-02-05T02:33:55;101243.81;;;-0.62;60.47
43503;BME280;29098;48.184;16.298;2023-02-05T02:41:26;101254.38;;;-0.66;59.58
43503;BME280;29098;48.184;16.298;2023-02-05T02:44:04;101253.66;;;-0.70;59.96
43503;BME280;29098;48.184;16.298;2023-02-05T02:46:53;101248.47;;;-0.70;59.77
43503;BME280;29098;48.184;16.298;2023-02-05T02:49:18;101255.00;;;-0.82;58.81
43503;BME280;29098;48.184;16.298;2023-02-05T02:51:45;101254.25;;;-0.86;59.13
43503;BME280;29098;48.184;16.298;2023-02-05T02:54:13;101253.78;;;-0.95;59.52
43503;BME280;29098;48.184;16.298;2023-02-05T02:56:40;101255.94;;;-1.07;59.77
43503;BME280;29098;48.184;16.298;2023-02-05T02:59:11;101252.47;;;-1.06;59.68
43503;BME280;29098;48.184;16.298;2023-02-05T03:01:38;101256.94;;;-1.11;59.57
43503;BME280;29098;48.184;16.298;2023-02-05T03:04:27;101252.22;;;-1.24;60.23
43503;BME280;29098;48.184;16.298;2023-02-05T03:06:55;101254.78;;;-1.22;60.70
43503;BME280;29098;48.184;16.298;2023-02-05T03:11:48;101245.31;;;-1.23;61.51
43503;BME280;29098;48.184;16.298;2023-02-05T03:14:13;101250.72;;;-1.29;61.83
43503;BME280;29098;48.184;16.298;2023-02-05T03:16:39;101250.72;;;-1.29;62.20
43503;BME280;29098;48.184;16.298;2023-02-05T03:19:04;101246.84;;;-1.41;62.68
43503;BME280;29098;48.184;16.298;2023-02-05T03:21:41;101253.72;;;-1.40;62.72
43503;BME280;29098;48.184;16.298;2023-02-05T03:24:07;101246.69;;;-1.36;63.33
43503;BME280;29098;48.184;16.298;2023-02-05T03:26:33;101251.81;;;-1.35;63.53
43503;BME280;29098;48.184;16.298;2023-02-05T03:29:05;101262.16;;;-1.35;63.73
43503;BME280;29098;48.184;16.298;2023-02-05T03:31:34;101250.81;;;-1.31;63.80
43503;BME280;29098;48.184;16.298;2023-02-05T03:36:42;101263.31;;;-1.44;64.85
43503;BME280;29098;48.184;16.298;2023-02-05T03:39:20;101255.25;;;-1.34;64.50
43503;BME280;29098;48.184;16.298;2023-02-05T03:42:04;101264.19;;;-1.43;65.09
43503;BME280;29098;48.184;16.298;2023-02-05T03:44:42;101266.75;;;-1.67;65.66
43503;BME280;29098;48.184;16.298;2023-02-05T03:52:24;101263.78;;;-1.56;66.42
43503;BME280;29098;48.184;16.298;2023-02-05T03:59:46;101268.50;;;-1.68;66.63
43503;BME280;29098;48.184;16.298;2023-02-05T04:02:13;101257.72;;;-1.55;66.19
43503;BME280;29098;48.184;16.298;2023-02-05T04:04:38;101269.72;;;-1.78;66.02
43503;BME280;29098;48.184;16.298;2023-02-05T04:07:03;101257.38;;;-1.70;66.09
43503;BME280;29098;48.184;16.298;2023-02-05T04:09:29;101262.13;;;-1.83;65.69
43503;BME280;29098;48.184;16.298;2023-02-05T04:11:54;101258.78;;;-1.85;66.04
43503;BME280;29098;48.184;16.298;2023-02-05T04:14:19;101263.94;;;-1.85;66.23
43503;BME280;29098;48.184;16.298;2023-02-05T04:16:45;101270.97;;;-1.88;66.10
43503;BME280;29098;48.184;16.298;2023-02-05T04:19:10;101268.25;;;-1.85;65.75
43503;BME280;29098;48.184;16.298;2023-02-05T04:21:35;101255.78;;;-1.74;65.26
43503;BME280;29098;48.184;16.298;2023-02-05T04:24:01;101265.38;;;-1.77;64.71
43503;BME280;29098;48.184;16.298;2023-02-05T04:26:26;101264.66;;;-1.81;65.08
43503;BME280;29098;48.184;16.298;2023-02-05T04:28:52;101257.00;;;-1.84;65.54
43503;BME280;29098;48.184;16.298;2023-02-05T04:31:17;101251.84;;;-1.84;64.42
43503;BME280;29098;48.184;16.298;2023-02-05T04:33:42;101261.97;;;-1.78;63.24
43503;BME280;29098;48.184;16.298;2023-02-05T04:36:08;101258.16;;;-1.68;62.06
43503;BME280;29098;48.184;16.298;2023-02-05T04:38:33;101257.50;;;-1.73;62.33
43503;BME280;29098;48.184;16.298;2023-02-05T04:40:59;101266.34;;;-1.80;62.96
43503;BME280;29098;48.184;16.298;2023-02-05T04:43:24;101264.56;;;-1.78;62.25
43503;BME280;29098;48.184;16.298;2023-02-05T04:45:50;101266.44;;;-1.83;63.35
43503;BME280;29098;48.184;16.298;2023-02-05T04:48:15;101269.09;;;-1.85;63.37
43503;BME280;29098;48.184;16.298;2023-02-05T04:50:41;101275.09;;;-1.84;63.39
43503;BME280;29098;48.184;16.298;2023-02-05T04:53:06;101270.34;;;-1.71;62.56
43503;BME280;29098;48.184;16.298;2023-02-05T04:55:32;101271.63;;;-1.83;63.24
43503;BME280;29098;48.184;16.298;2023-02-05T04:57:57;101259.81;;;-1.90;62.99
43503;BME280;29098;48.184;16.298;2023-02-05T05:00:23;101260.00;;;-1.97;63.33
43503;BME280;29098;48.184;16.298;2023-02-05T05:02:48;101260.13;;;-2.00;63.55
43503;BME280;29098;48.184;16.298;2023-02-05T05:05:14;101258.78;;;-2.10;63.81
43503;BME280;29098;48.184;16.298;2023-02-05T05:07:39;101258.44;;;-2.01;63.66
43503;BME280;29098;48.184;16.298;2023-02-05T05:10:06;101256.03;;;-2.05;63.91
43503;BME280;29098;48.184;16.298;2023-02-05T05:12:35;101260.81;;;-1.95;63.83
43503;BME280;29098;48.184;16.298;2023-02-05T05:15:01;101259.22;;;-1.99;63.65
43503;BME280;29098;48.184;16.298;2023-02-05T05:17:27;101264.31;;;-1.96;63.44
43503;BME280;29098;48.184;16.298;2023-02-05T05:19:52;101268.22;;;-2.09;64.04
43503;BME280;29098;48.184;16.298;2023-02-05T05:22:18;101271.19;;;-2.22;64.68
43503;BME280;29098;48.184;16.298;2023-02-05T05:24:43;101269.00;;;-2.07;64.06
43503;BME280;29098;48.184;16.298;2023-02-05T05:27:08;101269.69;;;-2.29;65.02
43503;BME280;29098;48.184;16.298;2023-02-05T05:29:34;101272.66;;;-2.14;64.65
43503;BME280;29098;48.184;16.298;2023-02-05T05:32:00;101273.41;;;-2.11;64.22
43503;BME280;29098;48.184;16.298;2023-02-05T05:34:25;101269.19;;;-2.13;64.64
43503;BME280;29098;48.184;16.298;2023-02-05T05:36:51;101270.28;;;-2.21;64.29
43503;BME280;29098;48.184;16.298;2023-02-05T05:39:17;101261.56;;;-2.16;64.11
43503;BME280;29098;48.184;16.298;2023-02-05T05:42:01;101257.53;;;-2.25;64.36
43503;BME280;29098;48.184;16.298;2023-02-05T05:44:45;101254.28;;;-2.30;64.76
43503;BME280;29098;48.184;16.298;2023-02-05T05:47:14;101265.25;;;-2.24;64.13
43503;BME280;29098;48.184;16.298;2023-02-05T05:49:39;101262.66;;;-2.24;63.92
43503;BME280;29098;48.184;16.298;2023-02-05T05:52:05;101256.84;;;-2.30;63.75
43503;BME280;29098;48.184;16.298;2023-02-05T05:54:30;101267.78;;;-2.22;63.66
43503;BME280;29098;48.184;16.298;2023-02-05T05:56:55;101271.47;;;-2.29;63.72
43503;BME280;29098;48.184;16.298;2023-02-05T05:59:20;101274.25;;;-2.36;63.88
43503;BME280;29098;48.184;16.298;2023-02-05T06:01:46;101270.41;;;-2.24;63.38
43503;BME280;29098;48.184;16.298;2023-02-05T06:04:11;101267.72;;;-2.21;63.27
43503;BME280;29098;48.184;16.298;2023-02-05T06:06:37;101264.22;;;-2.20;63.07
43503;BME280;29098;48.184;16.298;2023-02-05T06:09:02;101255.69;;;-2.22;63.13
43503;BME280;29098;48.184;16.298;2023-02-05T06:11:27;101258.84;;;-2.39;63.08
43503;BME280;29098;48.184;16.298;2023-02-05T06:13:53;101257.06;;;-2.37;63.02
43503;BME280;29098;48.184;16.298;2023-02-05T06:16:18;101271.03;;;-2.42;63.28
43503;BME280;29098;48.184;16.298;2023-02-05T06:18:44;101270.41;;;-2.51;63.96
43503;BME280;29098;48.184;16.298;2023-02-05T06:21:09;101273.50;;;-2.39;63.59
43503;BME280;29098;48.184;16.298;2023-02-05T06:23:35;101277.53;;;-2.59;64.00
43503;BME280;29098;48.184;16.298;2023-02-05T06:26:00;101272.97;;;-2.51;63.97
43503;BME280;29098;48.184;16.298;2023-02-05T06:28:25;101271.09;;;-2.45;64.17
43503;BME280;29098;48.184;16.298;2023-02-05T06:30:51;101276.97;;;-2.40;64.04
43503;BME280;29098;48.184;16.298;2023-02-05T06:33:16;101277.75;;;-2.38;63.89
43503;BME280;29098;48.184;16.298;2023-02-05T06:35:42;101282.03;;;-2.37;63.61
43503;BME280;29098;48.184;16.298;2023-02-05T06:38:07;101264.84;;;-2.38;63.62
43503;BME280;29098;48.184;16.298;2023-02-05T06:40:33;101270.72;;;-2.33;63.71
43503;BME280;29098;48.184;16.298;2023-02-05T06:42:58;101272.72;;;-2.41;64.12
43503;BME280;29098;48.184;16.298;2023-02-05T06:45:24;101280.34;;;-2.38;63.89
43503;BME280;29098;48.184;16.298;2023-02-05T06:47:49;101270.88;;;-2.38;63.73
43503;BME280;29098;48.184;16.298;2023-02-05T06:50:17;101283.66;;;-2.35;63.16
43503;BME280;29098;48.184;16.298;2023-02-05T06:52:43;101289.78;;;-2.37;63.44
43503;BME280;29098;48.184;16.298;2023-02-05T06:55:09;101282.69;;;-2.30;63.20
43503;BME280;29098;48.184;16.298;2023-02-05T06:57:34;101284.97;;;-2.21;62.62
43503;BME280;29098;48.184;16.298;2023-02-05T07:00:00;101291.84;;;-2.22;62.71
43503;BME280;29098;48.184;16.298;2023-02-05T07:02:25;101290.75;;;-2.14;62.35
43503;BME280;29098;48.184;16.298;2023-02-05T07:04:50;101303.09;;;-2.23;62.90
43503;BME280;29098;48.184;16.298;2023-02-05T07:07:16;101297.78;;;-2.18;63.11
43503;BME280;29098;48.184;16.298;2023-02-05T07:09:41;101313.50;;;-1.99;62.97
43503;BME280;29098;48.184;16.298;2023-02-05T07:12:07;101312.31;;;-1.88;62.21
43503;BME280;29098;48.184;16.298;2023-02-05T07:14:38;101306.00;;;-1.81;61.12
43503;BME280;29098;48.184;16.298;2023-02-05T07:17:04;101309.50;;;-1.82;62.41
43503;BME280;29098;48.184;16.298;2023-02-05T07:19:30;101310.97;;;-1.75;60.77
43503;BME280;29098;48.184;16.298;2023-02-05T07:21:55;101312.53;;;-1.69;60.10
43503;BME280;29098;48.184;16.298;2023-02-05T07:24:20;101305.72;;;-1.72;59.19
43503;BME280;29098;48.184;16.298;2023-02-05T07:26:46;101318.16;;;-1.58;59.01
43503;BME280;29098;48.184;16.298;2023-02-05T07:29:11;101263.41;;;-1.95;59.19
43503;BME280;29098;48.184;16.298;2023-02-05T07:31:36;101320.56;;;-1.53;58.01
43503;BME280;29098;48.184;16.298;2023-02-05T07:34:02;101306.75;;;-1.52;58.11
43503;BME280;29098;48.184;16.298;2023-02-05T07:36:27;101302.13;;;-1.44;57.90
43503;BME280;29098;48.184;16.298;2023-02-05T07:38:53;101308.59;;;-1.56;58.60
43503;BME280;29098;48.184;16.298;2023-02-05T07:41:18;101297.13;;;-1.48;58.49
43503;BME280;29098;48.184;16.298;2023-02-05T07:43:44;101301.97;;;-1.39;57.41
43503;BME280;29098;48.184;16.298;2023-02-05T07:46:10;101304.72;;;-1.20;57.15
43503;BME280;29098;48.184;16.298;2023-02-05T07:48:36;101300.44;;;-1.21;56.32
43503;BME280;29098;48.184;16.298;2023-02-05T07:51:01;101300.97;;;-1.11;55.86
43503;BME280;29098;48.184;16.298;2023-02-05T07:53:27;101310.34;;;-1.08;55.96
43503;BME280;29098;48.184;16.298;2023-02-05T07:55:52;101312.63;;;-1.23;55.96
43503;BME280;29098;48.184;16.298;2023-02-05T07:58:18;101321.88;;;-1.17;55.59
43503;BME280;29098;48.184;16.298;2023-02-05T08:00:43;101324.94;;;-1.06;55.41
43503;BME280;29098;48.184;16.298;2023-02-05T08:03:09;101327.00;;;-1.16;55.79
43503;BME280;29098;48.184;16.298;2023-02-05T08:05:35;101334.34;;;-1.03;55.62
43503;BME280;29098;48.184;16.298;2023-02-05T08:08:00;101323.97;;;-1.03;55.31
43503;BME280;29098;48.184;16.298;2023-02-05T08:10:25;101323.13;;;-1.04;55.12
43503;BME280;29098;48.184;16.298;2023-02-05T08:12:51;101318.84;;;-1.05;55.99
43503;BME280;29098;48.184;16.298;2023-02-05T08:15:16;101323.72;;;-0.97;55.41
43503;BME280;29098;48.184;16.298;2023-02-05T08:17:42;101331.19;;;-0.88;54.72
43503;BME280;29098;48.184;16.298;2023-02-05T08:20:07;101337.13;;;-0.86;55.53
43503;BME280;29098;48.184;16.298;2023-02-05T08:22:34;101330.38;;;-0.90;55.05
43503;BME280;29098;48.184;16.298;2023-02-05T08:24:59;101332.78;;;-0.85;55.30
43503;BME280;29098;48.184;16.298;2023-02-05T08:27:25;101328.28;;;-0.80;55.22
43503;BME280;29098;48.184;16.298;2023-02-05T08:29:50;101326.41;;;-0.76;54.78
43503;BME280;29098;48.184;16.298;2023-02-05T08:32:15;101325.41;;;-0.72;54.19
43503;BME280;29098;48.184;16.298;2023-02-05T08:34:41;101326.41;;;-0.76;54.82
43503;BME280;29098;48.184;16.298;2023-02-05T08:37:06;101323.91;;;-0.56;54.36
43503;BME280;29098;48.184;16.298;2023-02-05T08:39:31;101327.44;;;-0.58;54.39
43503;BME280;29098;48.184;16.298;2023-02-05T08:41:57;101335.94;;;-0.54;54.19
43503;BME280;29098;48.184;16.298;2023-02-05T08:44:22;101335.91;;;-0.53;54.17
43503;BME280;29098;48.184;16.298;2023-02-05T08:46:47;101339.75;;;-0.41;54.37
43503;BME280;29098;48.184;16.298;2023-02-05T08:49:13;101337.50;;;-0.50;54.93
43503;BME280;29098;48.184;16.298;2023-02-05T08:51:38;101334.44;;;-0.38;55.06
43503;BME280;29098;48.184;16.298;2023-02-05T08:54:03;101333.50;;;-0.58;54.20
43503;BME280;29098;48.184;16.298;2023-02-05T08:56:33;101327.84;;;-0.47;53.95
43503;BME280;29098;48.184;16.298;2023-02-05T08:58:58;101330.88;;;-0.35;53.89
43503;BME280;29098;48.184;16.298;2023-02-05T09:01:23;101325.09;;;-0.42;54.12
43503;BME280;29098;48.184;16.298;2023-02-05T09:03:49;101335.00;;;-0.31;54.17
43503;BME280;29098;48.184;16.298;2023-02-05T09:06:14;101325.13;;;-0.21;54.53
43503;BME280;29098;48.184;16.298;2023-02-05T09:08:40;101332.16;;;-0.03;54.02
43503;BME280;29098;48.184;16.298;2023-02-05T09:11:06;101331.88;;;0.04;54.38
43503;BME280;29098;48.184;16.298;2023-02-05T09:13:32;101324.91;;;0.06;54.83
43503;BME280;29098;48.184;16.298;2023-02-05T09:15:57;101317.13;;;0.06;54.00
43503;BME280;29098;48.184;16.298;2023-02-05T09:18:23;101320.34;;;0.32;53.25
43503;BME280;29098;48.184;16.298;2023-02-05T09:20:48;101317.91;;;0.29;52.61
43503;BME280;29098;48.184;16.298;2023-02-05T09:23:14;101328.78;;;0.37;52.92
43503;BME280;29098;48.184;16.298;2023-02-05T09:25:40;101316.28;;;0.26;51.82
43503;BME280;29098;48.184;16.298;2023-02-05T09:28:06;101316.59;;;0.39;51.55
43503;BME280;29098;48.184;16.298;2023-02-05T09:30:40;101325.44;;;0.35;51.74
43503;BME280;29098;48.184;16.298;2023-02-05T09:33:06;101327.41;;;0.49;51.95
43503;BME280;29098;48.184;16.298;2023-02-05T09:35:33;101326.59;;;0.67;51.13
43503;BME280;29098;48.184;16.298;2023-02-05T09:37:58;101320.84;;;0.61;51.05
43503;BME280;29098;48.184;16.298;2023-02-05T09:40:26;101324.06;;;0.66;51.51
43503;BME280;29098;48.184;16.298;2023-02-05T09:45:26;101318.59;;;0.91;51.15
43503;BME280;29098;48.184;16.298;2023-02-05T09:50:34;101324.91;;;0.86;50.38
43503;BME280;29098;48.184;16.298;2023-02-05T09:53:02;101316.09;;;0.90;50.99
43503;BME280;29098;48.184;16.298;2023-02-05T09:55:30;101314.00;;;0.98;50.69
43503;BME280;29098;48.184;16.298;2023-02-05T09:58:04;101298.66;;;1.11;50.56
43503;BME280;29098;48.184;16.298;2023-02-05T10:00:32;101290.38;;;1.22;50.05
43503;BME280;29098;48.184;16.298;2023-02-05T10:03:20;101289.38;;;1.25;50.07
43503;BME280;29098;48.184;16.298;2023-02-05T10:05:59;101287.88;;;1.38;50.16
43503;BME280;29098;48.184;16.298;2023-02-05T10:08:36;101290.28;;;1.60;50.26
43503;BME280;29098;48.184;16.298;2023-02-05T10:11:04;101282.66;;;1.75;49.87
43503;BME280;29098;48.184;16.298;2023-02-05T10:13:36;101295.13;;;1.86;50.20
43503;BME280;29098;48.184;16.298;2023-02-05T10:16:17;101285.94;;;1.96;47.76
43503;BME280;29098;48.184;16.298;2023-02-05T10:21:38;101274.53;;;1.63;48.85
43503;BME280;29098;48.184;16.298;2023-02-05T10:24:16;101270.84;;;1.85;49.59
43503;BME280;29098;48.184;16.298;2023-02-05T10:26:48;101262.91;;;2.06;48.28
43503;BME280;29098;48.184;16.298;2023-02-05T10:29:22;101259.19;;;2.28;47.51
43503;BME280;29098;48.184;16.298;2023-02-05T10:34:30;101260.06;;;2.44;45.58
43503;BME280;29098;48.184;16.298;2023-02-05T10:36:57;101255.53;;;2.64;45.98
43503;BME280;29098;48.184;16.298;2023-02-05T10:39:25;101252.50;;;2.88;47.59
43503;BME280;29098;48.184;16.298;2023-02-05T10:41:58;101241.84;;;3.09;47.07
43503;BME280;29098;48.184;16.298;2023-02-05T10:44:44;101244.22;;;3.44;48.02
43503;BME280;29098;48.184;16.298;2023-02-05T10:50:06;101253.94;;;3.56;46.04
43503;BME280;29098;48.184;16.298;2023-02-05T10:52:38;101254.47;;;3.92;45.53
43503;BME280;29098;48.184;16.298;2023-02-05T10:55:04;101248.22;;;3.80;45.36
43503;BME280;29098;48.184;16.298;2023-02-05T10:57:30;101250.66;;;4.27;44.95
43503;BME280;29098;48.184;16.298;2023-02-05T11:00:01;101239.19;;;4.44;44.62
43503;BME280;29098;48.184;16.298;2023-02-05T11:02:38;101233.16;;;4.44;43.04
43503;BME280;29098;48.184;16.298;2023-02-05T11:05:18;101226.50;;;4.52;42.87
43503;BME280;29098;48.184;16.298;2023-02-05T11:07:45;101229.63;;;4.30;43.15
43503;BME280;29098;48.184;16.298;2023-02-05T11:10:15;101223.00;;;4.81;42.94
43503;BME280;29098;48.184;16.298;2023-02-05T11:12:43;101223.66;;;4.28;44.19
43503;BME280;29098;48.184;16.298;2023-02-05T11:15:17;101231.13;;;4.20;44.56
43503;BME280;29098;48.184;16.298;2023-02-05T11:17:43;101225.38;;;4.71;43.91
43503;BME280;29098;48.184;16.298;2023-02-05T11:22:42;101222.78;;;3.98;45.34
43503;BME280;29098;48.184;16.298;2023-02-05T11:27:35;101226.78;;;3.14;46.79
43503;BME280;29098;48.184;16.298;2023-02-05T11:32:43;101214.25;;;3.51;48.01
43503;BME280;29098;48.184;16.298;2023-02-05T11:35:15;101213.00;;;4.17;45.68
43503;BME280;29098;48.184;16.298;2023-02-05T11:37:45;101211.41;;;4.29;45.55
43503;BME280;29098;48.184;16.298;2023-02-05T11:40:22;101202.69;;;4.99;44.28
43503;BME280;29098;48.184;16.298;2023-02-05T11:42:55;101202.00;;;5.89;42.08
43503;BME280;29098;48.184;16.298;2023-02-05T11:45:21;101191.34;;;6.80;39.73
43503;BME280;29098;48.184;16.298;2023-02-05T11:47:49;101188.91;;;6.66;37.30
43503;BME280;29098;48.184;16.298;2023-02-05T11:50:24;101187.91;;;5.26;40.73
43503;BME280;29098;48.184;16.298;2023-02-05T11:52:51;101192.41;;;4.83;42.08
43503;BME280;29098;48.184;16.298;2023-02-05T11:55:26;101194.06;;;4.42;42.48
43503;BME280;29098;48.184;16.298;2023-02-05T12:00:53;101195.72;;;3.56;44.35
43503;BME280;29098;48.184;16.298;2023-02-05T12:03:21;101180.41;;;3.35;45.87
43503;BME280;29098;48.184;16.298;2023-02-05T12:05:54;101183.50;;;2.95;46.54
43503;BME280;29098;48.184;16.298;2023-02-05T12:18:35;101173.47;;;2.41;47.62
43503;BME280;29098;48.184;16.298;2023-02-05T12:21:07;101179.41;;;2.27;48.47
43503;BME280;29098;48.184;16.298;2023-02-05T12:29:07;101179.66;;;2.22;47.07
43503;BME280;29098;48.184;16.298;2023-02-05T12:39:44;101166.34;;;1.95;48.13
43503;BME280;29098;48.184;16.298;2023-02-05T12:42:12;101180.31;;;1.76;48.29
43503;BME280;29098;48.184;16.298;2023-02-05T12:47:19;101181.25;;;2.25;47.38
43503;BME280;29098;48.184;16.298;2023-02-05T12:50:00;101190.66;;;2.27;47.43
43503;BME280;29098;48.184;16.298;2023-02-05T12:57:44;101187.50;;;1.71;47.63
43503;BME280;29098;48.184;16.298;2023-02-05T13:06:05;101185.00;;;2.03;47.32
43503;BME280;29098;48.184;16.298;2023-02-05T13:08:37;101177.91;;;2.87;47.22
43503;BME280;29098;48.184;16.298;2023-02-05T13:13:33;101176.28;;;2.84;46.56
43503;BME280;29098;48.184;16.298;2023-02-05T13:16:01;101178.09;;;2.52;47.57
43503;BME280;29098;48.184;16.298;2023-02-05T13:18:29;101181.25;;;2.25;47.88
43503;BME280;29098;48.184;16.298;2023-02-05T13:20:58;101187.47;;;2.22;48.19
43503;BME280;29098;48.184;16.298;2023-02-05T13:23:45;101181.44;;;2.22;47.85
43503;BME280;29098;48.184;16.298;2023-02-05T13:26:30;101188.19;;;2.08;48.13
43503;BME280;29098;48.184;16.298;2023-02-05T13:29:15;101183.44;;;2.16;48.37
43503;BME280;29098;48.184;16.298;2023-02-05T13:31:42;101183.59;;;2.13;48.34
43503;BME280;29098;48.184;16.298;2023-02-05T13:34:13;101187.31;;;2.25;48.31
43503;BME280;29098;48.184;16.298;2023-02-05T14:00:13;101174.91;;;2.46;47.33
43503;BME280;29098;48.184;16.298;2023-02-05T14:02:40;101173.81;;;2.51;47.76
43503;BME280;29098;48.184;16.298;2023-02-05T14:05:06;101185.81;;;2.37;48.38
43503;BME280;29098;48.184;16.298;2023-02-05T14:07:42;101181.56;;;2.02;48.60
43503;BME280;29098;48.184;16.298;2023-02-05T14:10:19;101179.84;;;1.85;49.21
43503;BME280;29098;48.184;16.298;2023-02-05T14:12:47;101183.28;;;1.86;50.06
43503;BME280;29098;48.184;16.298;2023-02-05T14:35:56;101192.31;;;1.61;50.99
43503;BME280;29098;48.184;16.298;2023-02-05T14:38:30;101187.66;;;1.50;51.05
43503;BME280;29098;48.184;16.298;2023-02-05T14:43:32;101182.91;;;1.76;49.66
43503;BME280;29098;48.184;16.298;2023-02-05T14:46:01;101191.63;;;1.75;49.32
43503;BME280;29098;48.184;16.298;2023-02-05T14:48:32;101185.03;;;1.85;49.42
43503;BME280;29098;48.184;16.298;2023-02-05T14:51:04;101193.47;;;1.55;49.70
43503;BME280;29098;48.184;16.298;2023-02-05T14:53:30;101182.78;;;1.61;50.16
43503;BME280;29098;48.184;16.298;2023-02-05T14:55:57;101189.47;;;1.66;51.03
43503;BME280;29098;48.184;16.298;2023-02-05T14:58:31;101188.66;;;1.65;51.14